Aérodrome :
LOGIN :

S'inscrire | Disclaimer

   EN    FR    IT 

 










Légende :    VFR   VFR Marginal   IFR   IFR Intensif   IFR Très Intensif
Visi : 
Plafond : 
>= 8 km
>= 3000ft
5 à 8 km
1000 à 3000 ft
1500m à 5 km
500 à 1000 ft
800 à 1500m
200 à 500 ft
< 800m
< 200 ft
Symboles :   Orages  Brouillard  Fortes neiges  Fortes précipitations  Vent > 20 kt
SIGMETs :   Divers  Orages  Givrage  Turbulence  Onde Orograph.  Cendres Volcan.






- Altitude de l'aérodrome : 16 ft
- Code IATA : EAS


LESO - San Sebastian Fuenterrabia

DERNIER METAR :
  • 241600Z 25005KT 200V300 9999 BKN058 13/06 Q1010

METARs EXPIRÉS :
  • 241530Z 24009KT 200V290 9999 SCT060 13/07 Q1010
  • 241500Z 24007KT 200V280 9999 FEW050 12/07 Q1011
  • 241430Z 24006KT 180V270 9999 SCT040 BKN060 11/07 Q1011
  • 241400Z 26008KT 210V320 9999 FEW027 SCT040 BKN060 11/07 Q1011 RERA
  • 241335Z 28005KT 190V330 7000 RA SCT027 BKN042 10/08 Q1012

TAF TAF LESO
Valide du 24 à 12h jusqu'au 25 à 12h UTC


241100Z 2412/2512 25009KT 9999 SCT020 BKN040 TX12/2415Z TN06/2507Z
PROB40
TEMPO 2412/2424 25015G25KT
TEMPO 2412/2512 3000 RADZ BKN010
PROB30
TEMPO 2412/2415 1500 SHRA SCT030TCU
PROB40
TEMPO 2500/2508 1500 RADZ BR BKN005 BKN010



MET'MAP, la Météo Aéronautique d'un coup d'oeil ! - Copyright ORBIFLY Décembre 2007 - Disclaimer

ORBIFLY MET'MAP TEAM :

Programmation & Développement : Alexandra Zaïnal
Sur une idée originale de : Baudouin d'Aumeries
Assistance à la programmation : Marc-Olivier Méhu
Soutien technique & logistique : Manuel Goepfert

Contact : metmap@orbifly.com




SOURCES & CREDITS :

   NOAA